sensor_id;sensor_type;location;lat;lon;timestamp;temperature;humidity
78992;DHT22;72820;44.838;37.674;2024-01-06T00:00:49;6.11;82.95
78992;DHT22;72820;44.838;37.674;2024-01-06T00:01:50;6.13;82.82
78992;DHT22;72820;44.838;37.674;2024-01-06T00:02:52;6.09;82.93
78992;DHT22;72820;44.838;37.674;2024-01-06T00:03:53;6.07;82.87
78992;DHT22;72820;44.838;37.674;2024-01-06T00:04:55;6.03;82.68
78992;DHT22;72820;44.838;37.674;2024-01-06T00:05:56;6.02;82.95
78992;DHT22;72820;44.838;37.674;2024-01-06T00:06:58;6.02;83.09
78992;DHT22;72820;44.838;37.674;2024-01-06T00:07:59;6.03;83.16
78992;DHT22;72820;44.838;37.674;2024-01-06T00:09:00;6.03;83.23
78992;DHT22;72820;44.838;37.674;2024-01-06T00:10:02;6.04;83.21
78992;DHT22;72820;44.838;37.674;2024-01-06T00:11:04;6.04;83.11
78992;DHT22;72820;44.838;37.674;2024-01-06T00:12:06;6.02;83.06
78992;DHT22;72820;44.838;37.674;2024-01-06T00:13:07;6.00;83.09
78992;DHT22;72820;44.838;37.674;2024-01-06T00:14:09;5.99;82.95
78992;DHT22;72820;44.838;37.674;2024-01-06T00:15:10;5.96;82.71
78992;DHT22;72820;44.838;37.674;2024-01-06T00:16:12;5.93;82.44
78992;DHT22;72820;44.838;37.674;2024-01-06T00:17:13;5.89;82.33
78992;DHT22;72820;44.838;37.674;2024-01-06T00:18:15;5.83;82.36
78992;DHT22;72820;44.838;37.674;2024-01-06T00:19:16;5.82;82.53
78992;DHT22;72820;44.838;37.674;2024-01-06T00:20:18;5.80;82.47
78992;DHT22;72820;44.838;37.674;2024-01-06T00:21:20;5.80;82.66
78992;DHT22;72820;44.838;37.674;2024-01-06T00:22:21;5.79;82.57
78992;DHT22;72820;44.838;37.674;2024-01-06T00:23:23;5.77;82.69
78992;DHT22;72820;44.838;37.674;2024-01-06T00:24:24;5.77;82.83
78992;DHT22;72820;44.838;37.674;2024-01-06T00:25:26;5.76;82.90
78992;DHT22;72820;44.838;37.674;2024-01-06T00:26:27;5.73;82.76
78992;DHT22;72820;44.838;37.674;2024-01-06T00:27:29;5.72;82.85
78992;DHT22;72820;44.838;37.674;2024-01-06T00:28:30;5.70;82.83
78992;DHT22;72820;44.838;37.674;2024-01-06T00:29:32;5.68;82.71
78992;DHT22;72820;44.838;37.674;2024-01-06T00:30:33;5.65;82.70
78992;DHT22;72820;44.838;37.674;2024-01-06T00:31:35;5.66;82.96
78992;DHT22;72820;44.838;37.674;2024-01-06T00:32:36;5.65;82.90
78992;DHT22;72820;44.838;37.674;2024-01-06T00:33:38;5.63;82.99
78992;DHT22;72820;44.838;37.674;2024-01-06T00:34:39;5.59;82.99
78992;DHT22;72820;44.838;37.674;2024-01-06T00:35:41;5.58;83.13
78992;DHT22;72820;44.838;37.674;2024-01-06T00:36:42;5.54;83.33
78992;DHT22;72820;44.838;37.674;2024-01-06T00:37:44;5.52;83.29
78992;DHT22;72820;44.838;37.674;2024-01-06T00:38:48;5.47;83.05
78992;DHT22;72820;44.838;37.674;2024-01-06T00:39:50;5.47;83.25
78992;DHT22;72820;44.838;37.674;2024-01-06T00:40:51;5.47;83.03
78992;DHT22;72820;44.838;37.674;2024-01-06T00:41:53;5.34;82.47
78992;DHT22;72820;44.838;37.674;2024-01-06T00:42:54;5.30;82.61
78992;DHT22;72820;44.838;37.674;2024-01-06T00:43:55;5.28;82.93
78992;DHT22;72820;44.838;37.674;2024-01-06T00:44:57;5.30;83.26
78992;DHT22;72820;44.838;37.674;2024-01-06T00:45:58;5.27;83.08
78992;DHT22;72820;44.838;37.674;2024-01-06T00:47:00;5.26;83.24
78992;DHT22;72820;44.838;37.674;2024-01-06T00:48:02;5.26;83.43
78992;DHT22;72820;44.838;37.674;2024-01-06T00:49:03;5.23;83.51
78992;DHT22;72820;44.838;37.674;2024-01-06T00:50:05;5.20;83.42
78992;DHT22;72820;44.838;37.674;2024-01-06T00:51:07;5.14;83.19
78992;DHT22;72820;44.838;37.674;2024-01-06T00:52:08;5.10;83.20
78992;DHT22;72820;44.838;37.674;2024-01-06T00:53:11;5.09;83.54
78992;DHT22;72820;44.838;37.674;2024-01-06T00:54:13;5.09;83.66
78992;DHT22;72820;44.838;37.674;2024-01-06T00:55:14;5.06;83.69
78992;DHT22;72820;44.838;37.674;2024-01-06T00:56:16;5.04;83.72
78992;DHT22;72820;44.838;37.674;2024-01-06T00:57:17;5.09;84.30
78992;DHT22;72820;44.838;37.674;2024-01-06T00:58:25;5.11;83.92
78992;DHT22;72820;44.838;37.674;2024-01-06T00:59:26;5.09;83.45
78992;DHT22;72820;44.838;37.674;2024-01-06T01:00:28;5.07;83.25
78992;DHT22;72820;44.838;37.674;2024-01-06T01:01:30;5.04;83.21
78992;DHT22;72820;44.838;37.674;2024-01-06T01:02:31;5.04;83.35
78992;DHT22;72820;44.838;37.674;2024-01-06T01:03:33;5.06;83.37
78992;DHT22;72820;44.838;37.674;2024-01-06T01:04:34;5.09;83.83
78992;DHT22;72820;44.838;37.674;2024-01-06T01:05:36;5.09;83.38
78992;DHT22;72820;44.838;37.674;2024-01-06T01:06:37;5.09;83.16
78992;DHT22;72820;44.838;37.674;2024-01-06T01:07:39;5.04;83.23
78992;DHT22;72820;44.838;37.674;2024-01-06T01:08:40;5.00;82.97
78992;DHT22;72820;44.838;37.674;2024-01-06T01:09:42;4.97;82.83
78992;DHT22;72820;44.838;37.674;2024-01-06T01:10:43;4.93;82.83
78992;DHT22;72820;44.838;37.674;2024-01-06T01:11:46;4.92;82.90
78992;DHT22;72820;44.838;37.674;2024-01-06T01:12:47;4.94;82.86
78992;DHT22;72820;44.838;37.674;2024-01-06T01:13:49;4.92;83.00
78992;DHT22;72820;44.838;37.674;2024-01-06T01:14:51;4.89;83.13
78992;DHT22;72820;44.838;37.674;2024-01-06T01:15:53;4.92;83.50
78992;DHT22;72820;44.838;37.674;2024-01-06T01:16:54;4.89;83.52
78992;DHT22;72820;44.838;37.674;2024-01-06T01:17:55;4.93;83.51
78992;DHT22;72820;44.838;37.674;2024-01-06T01:18:57;4.97;83.16
78992;DHT22;72820;44.838;37.674;2024-01-06T01:19:59;4.93;82.28
78992;DHT22;72820;44.838;37.674;2024-01-06T01:21:00;4.90;82.51
78992;DHT22;72820;44.838;37.674;2024-01-06T01:22:02;4.89;82.85
78992;DHT22;72820;44.838;37.674;2024-01-06T01:23:04;4.90;82.64
78992;DHT22;72820;44.838;37.674;2024-01-06T01:24:05;4.86;82.77
78992;DHT22;72820;44.838;37.674;2024-01-06T01:25:07;4.96;84.05
78992;DHT22;72820;44.838;37.674;2024-01-06T01:26:09;5.03;83.84
78992;DHT22;72820;44.838;37.674;2024-01-06T01:27:10;5.03;83.44
78992;DHT22;72820;44.838;37.674;2024-01-06T01:28:13;5.01;83.35
78992;DHT22;72820;44.838;37.674;2024-01-06T01:29:14;5.03;83.28
78992;DHT22;72820;44.838;37.674;2024-01-06T01:30:16;5.03;83.26
78992;DHT22;72820;44.838;37.674;2024-01-06T01:31:17;5.01;83.12
78992;DHT22;72820;44.838;37.674;2024-01-06T01:32:19;5.01;83.03
78992;DHT22;72820;44.838;37.674;2024-01-06T01:33:20;5.03;82.68
78992;DHT22;72820;44.838;37.674;2024-01-06T01:34:22;4.99;82.34
78992;DHT22;72820;44.838;37.674;2024-01-06T01:35:23;5.01;82.40
78992;DHT22;72820;44.838;37.674;2024-01-06T01:36:25;5.04;82.23
78992;DHT22;72820;44.838;37.674;2024-01-06T01:37:26;5.01;82.12
78992;DHT22;72820;44.838;37.674;2024-01-06T01:38:28;5.00;82.24
78992;DHT22;72820;44.838;37.674;2024-01-06T01:39:29;4.97;81.88
78992;DHT22;72820;44.838;37.674;2024-01-06T01:40:31;4.93;82.21
78992;DHT22;72820;44.838;37.674;2024-01-06T01:41:32;4.89;81.86
78992;DHT22;72820;44.838;37.674;2024-01-06T01:42:34;4.82;82.13
78992;DHT22;72820;44.838;37.674;2024-01-06T01:43:35;4.79;82.64
78992;DHT22;72820;44.838;37.674;2024-01-06T01:44:37;4.82;82.83
78992;DHT22;72820;44.838;37.674;2024-01-06T01:45:38;4.83;83.09
78992;DHT22;72820;44.838;37.674;2024-01-06T01:46:39;4.85;83.14
78992;DHT22;72820;44.838;37.674;2024-01-06T01:47:41;4.85;83.07
78992;DHT22;72820;44.838;37.674;2024-01-06T01:48:42;4.89;83.12
78992;DHT22;72820;44.838;37.674;2024-01-06T01:49:47;4.89;82.84
78992;DHT22;72820;44.838;37.674;2024-01-06T01:50:49;4.85;82.80
78992;DHT22;72820;44.838;37.674;2024-01-06T01:51:52;4.85;82.86
78992;DHT22;72820;44.838;37.674;2024-01-06T01:52:54;4.83;82.93
78992;DHT22;72820;44.838;37.674;2024-01-06T01:53:57;4.86;83.11
78992;DHT22;72820;44.838;37.674;2024-01-06T01:54:59;4.85;83.19
78992;DHT22;72820;44.838;37.674;2024-01-06T01:56:00;4.85;82.96
78992;DHT22;72820;44.838;37.674;2024-01-06T01:57:02;4.82;82.71
78992;DHT22;72820;44.838;37.674;2024-01-06T01:58:05;4.82;82.97
78992;DHT22;72820;44.838;37.674;2024-01-06T01:59:12;4.83;83.04
78992;DHT22;72820;44.838;37.674;2024-01-06T02:00:14;4.86;82.90
78992;DHT22;72820;44.838;37.674;2024-01-06T02:01:16;4.87;82.91
78992;DHT22;72820;44.838;37.674;2024-01-06T02:02:18;4.87;82.80
78992;DHT22;72820;44.838;37.674;2024-01-06T02:03:20;4.83;82.87
78992;DHT22;72820;44.838;37.674;2024-01-06T02:04:22;4.80;83.08
78992;DHT22;72820;44.838;37.674;2024-01-06T02:05:23;4.83;83.26
78992;DHT22;72820;44.838;37.674;2024-01-06T02:06:25;4.82;83.35
78992;DHT22;72820;44.838;37.674;2024-01-06T02:07:26;4.80;83.06
78992;DHT22;72820;44.838;37.674;2024-01-06T02:08:28;4.80;82.89
78992;DHT22;72820;44.838;37.674;2024-01-06T02:09:29;4.79;82.91
78992;DHT22;72820;44.838;37.674;2024-01-06T02:10:31;4.77;83.20
78992;DHT22;72820;44.838;37.674;2024-01-06T02:11:32;4.79;83.53
78992;DHT22;72820;44.838;37.674;2024-01-06T02:12:34;4.82;83.69
78992;DHT22;72820;44.838;37.674;2024-01-06T02:13:37;4.82;83.39
78992;DHT22;72820;44.838;37.674;2024-01-06T02:14:38;4.83;83.32
78992;DHT22;72820;44.838;37.674;2024-01-06T02:15:40;4.85;83.17
78992;DHT22;72820;44.838;37.674;2024-01-06T02:16:41;4.85;83.04
78992;DHT22;72820;44.838;37.674;2024-01-06T02:17:43;4.89;83.95
78992;DHT22;72820;44.838;37.674;2024-01-06T02:18:44;5.00;84.54
78992;DHT22;72820;44.838;37.674;2024-01-06T02:19:46;4.99;83.35
78992;DHT22;72820;44.838;37.674;2024-01-06T02:20:49;4.94;82.63
78992;DHT22;72820;44.838;37.674;2024-01-06T02:21:52;4.92;82.55
78992;DHT22;72820;44.838;37.674;2024-01-06T02:22:54;4.87;82.64
78992;DHT22;72820;44.838;37.674;2024-01-06T02:23:57;4.86;82.81
78992;DHT22;72820;44.838;37.674;2024-01-06T02:24:58;4.83;82.44
78992;DHT22;72820;44.838;37.674;2024-01-06T02:26:00;4.86;82.73
78992;DHT22;72820;44.838;37.674;2024-01-06T02:27:01;4.94;83.99
78992;DHT22;72820;44.838;37.674;2024-01-06T02:28:03;4.96;82.91
78992;DHT22;72820;44.838;37.674;2024-01-06T02:29:05;4.89;82.47
78992;DHT22;72820;44.838;37.674;2024-01-06T02:30:07;4.85;82.29
78992;DHT22;72820;44.838;37.674;2024-01-06T02:31:08;4.83;82.22
78992;DHT22;72820;44.838;37.674;2024-01-06T02:32:10;4.79;82.27
78992;DHT22;72820;44.838;37.674;2024-01-06T02:33:11;4.79;82.58
78992;DHT22;72820;44.838;37.674;2024-01-06T02:34:13;4.80;82.88
78992;DHT22;72820;44.838;37.674;2024-01-06T02:35:14;4.82;83.09
78992;DHT22;72820;44.838;37.674;2024-01-06T02:36:16;4.90;83.88
78992;DHT22;72820;44.838;37.674;2024-01-06T02:37:18;4.96;84.13
78992;DHT22;72820;44.838;37.674;2024-01-06T02:38:19;5.04;84.21
78992;DHT22;72820;44.838;37.674;2024-01-06T02:39:20;5.06;84.29
78992;DHT22;72820;44.838;37.674;2024-01-06T02:40:24;5.13;84.32
78992;DHT22;72820;44.838;37.674;2024-01-06T02:41:26;5.23;84.49
78992;DHT22;72820;44.838;37.674;2024-01-06T02:42:27;5.24;84.54
78992;DHT22;72820;44.838;37.674;2024-01-06T02:43:29;5.26;84.41
78992;DHT22;72820;44.838;37.674;2024-01-06T02:44:30;5.32;84.31
78992;DHT22;72820;44.838;37.674;2024-01-06T02:45:32;5.35;84.34
78992;DHT22;72820;44.838;37.674;2024-01-06T02:46:33;5.37;84.45
78992;DHT22;72820;44.838;37.674;2024-01-06T02:47:35;5.37;83.44
78992;DHT22;72820;44.838;37.674;2024-01-06T02:48:37;5.35;83.27
78992;DHT22;72820;44.838;37.674;2024-01-06T02:49:38;5.32;83.27
78992;DHT22;72820;44.838;37.674;2024-01-06T02:50:40;5.31;82.95
78992;DHT22;72820;44.838;37.674;2024-01-06T02:51:41;5.24;82.80
78992;DHT22;72820;44.838;37.674;2024-01-06T02:52:44;5.26;83.42
78992;DHT22;72820;44.838;37.674;2024-01-06T02:53:46;5.34;84.47
78992;DHT22;72820;44.838;37.674;2024-01-06T02:54:47;5.42;83.61
78992;DHT22;72820;44.838;37.674;2024-01-06T02:55:49;5.32;82.65
78992;DHT22;72820;44.838;37.674;2024-01-06T02:56:50;5.31;83.09
78992;DHT22;72820;44.838;37.674;2024-01-06T02:57:52;5.32;83.28
78992;DHT22;72820;44.838;37.674;2024-01-06T02:58:53;5.31;83.27
78992;DHT22;72820;44.838;37.674;2024-01-06T02:59:55;5.26;82.96
78992;DHT22;72820;44.838;37.674;2024-01-06T03:00:56;5.26;82.97
78992;DHT22;72820;44.838;37.674;2024-01-06T03:01:58;5.24;82.92
78992;DHT22;72820;44.838;37.674;2024-01-06T03:02:59;5.21;82.99
78992;DHT22;72820;44.838;37.674;2024-01-06T03:04:01;5.17;82.80
78992;DHT22;72820;44.838;37.674;2024-01-06T03:05:02;5.16;83.04
78992;DHT22;72820;44.838;37.674;2024-01-06T03:06:04;5.17;83.22
78992;DHT22;72820;44.838;37.674;2024-01-06T03:07:05;5.17;83.42
78992;DHT22;72820;44.838;37.674;2024-01-06T03:08:07;5.19;83.63
78992;DHT22;72820;44.838;37.674;2024-01-06T03:09:08;5.17;83.94
78992;DHT22;72820;44.838;37.674;2024-01-06T03:10:10;5.24;84.14
78992;DHT22;72820;44.838;37.674;2024-01-06T03:11:11;5.27;84.39
78992;DHT22;72820;44.838;37.674;2024-01-06T03:12:13;5.27;84.00
78992;DHT22;72820;44.838;37.674;2024-01-06T03:13:15;5.28;84.04
78992;DHT22;72820;44.838;37.674;2024-01-06T03:14:17;5.28;84.01
78992;DHT22;72820;44.838;37.674;2024-01-06T03:15:18;5.26;83.92
78992;DHT22;72820;44.838;37.674;2024-01-06T03:16:20;5.23;83.66
78992;DHT22;72820;44.838;37.674;2024-01-06T03:17:22;5.23;83.64
78992;DHT22;72820;44.838;37.674;2024-01-06T03:18:23;5.20;84.16
78992;DHT22;72820;44.838;37.674;2024-01-06T03:19:25;5.26;84.51
78992;DHT22;72820;44.838;37.674;2024-01-06T03:20:28;5.31;84.56
78992;DHT22;72820;44.838;37.674;2024-01-06T03:21:30;5.31;84.34
78992;DHT22;72820;44.838;37.674;2024-01-06T03:22:31;5.28;84.25
78992;DHT22;72820;44.838;37.674;2024-01-06T03:23:33;5.27;84.20
78992;DHT22;72820;44.838;37.674;2024-01-06T03:24:34;5.28;83.76
78992;DHT22;72820;44.838;37.674;2024-01-06T03:25:36;5.28;83.95
78992;DHT22;72820;44.838;37.674;2024-01-06T03:26:38;5.26;83.68
78992;DHT22;72820;44.838;37.674;2024-01-06T03:27:39;5.28;84.00
78992;DHT22;72820;44.838;37.674;2024-01-06T03:28:41;5.27;83.87
78992;DHT22;72820;44.838;37.674;2024-01-06T03:29:42;5.27;83.58
78992;DHT22;72820;44.838;37.674;2024-01-06T03:30:44;5.26;83.26
78992;DHT22;72820;44.838;37.674;2024-01-06T03:31:46;5.23;83.43
78992;DHT22;72820;44.838;37.674;2024-01-06T03:32:48;5.20;83.23
78992;DHT22;72820;44.838;37.674;2024-01-06T03:33:49;5.19;83.22
78992;DHT22;72820;44.838;37.674;2024-01-06T03:34:50;5.16;83.24
78992;DHT22;72820;44.838;37.674;2024-01-06T03:35:52;5.14;83.10
78992;DHT22;72820;44.838;37.674;2024-01-06T03:36:54;5.13;83.26
78992;DHT22;72820;44.838;37.674;2024-01-06T03:37:55;5.17;83.87
78992;DHT22;72820;44.838;37.674;2024-01-06T03:38:57;5.31;85.00
78992;DHT22;72820;44.838;37.674;2024-01-06T03:39:58;5.32;83.52
78992;DHT22;72820;44.838;37.674;2024-01-06T03:41:00;5.27;82.73
78992;DHT22;72820;44.838;37.674;2024-01-06T03:42:02;5.23;82.42
78992;DHT22;72820;44.838;37.674;2024-01-06T03:43:04;5.14;82.13
78992;DHT22;72820;44.838;37.674;2024-01-06T03:44:05;5.11;82.02
78992;DHT22;72820;44.838;37.674;2024-01-06T03:45:07;5.03;82.13
78992;DHT22;72820;44.838;37.674;2024-01-06T03:46:09;4.99;82.67
78992;DHT22;72820;44.838;37.674;2024-01-06T03:47:10;4.97;82.91
78992;DHT22;72820;44.838;37.674;2024-01-06T03:48:12;4.97;83.07
78992;DHT22;72820;44.838;37.674;2024-01-06T03:49:13;4.96;83.08
78992;DHT22;72820;44.838;37.674;2024-01-06T03:50:15;4.93;83.08
78992;DHT22;72820;44.838;37.674;2024-01-06T03:51:17;4.99;83.00
78992;DHT22;72820;44.838;37.674;2024-01-06T03:52:18;5.06;84.25
78992;DHT22;72820;44.838;37.674;2024-01-06T03:53:20;5.11;83.56
78992;DHT22;72820;44.838;37.674;2024-01-06T03:54:22;5.11;83.07
78992;DHT22;72820;44.838;37.674;2024-01-06T03:55:23;5.10;82.93
78992;DHT22;72820;44.838;37.674;2024-01-06T03:56:25;5.11;82.82
78992;DHT22;72820;44.838;37.674;2024-01-06T03:57:27;5.14;82.94
78992;DHT22;72820;44.838;37.674;2024-01-06T03:58:28;5.13;82.89
78992;DHT22;72820;44.838;37.674;2024-01-06T03:59:30;5.11;82.77
78992;DHT22;72820;44.838;37.674;2024-01-06T04:00:31;5.11;82.50
78992;DHT22;72820;44.838;37.674;2024-01-06T04:01:33;5.10;82.76
78992;DHT22;72820;44.838;37.674;2024-01-06T04:02:36;5.07;82.81
78992;DHT22;72820;44.838;37.674;2024-01-06T04:03:39;5.06;82.97
78992;DHT22;72820;44.838;37.674;2024-01-06T04:04:43;5.00;83.14
78992;DHT22;72820;44.838;37.674;2024-01-06T04:05:44;5.03;83.30
78992;DHT22;72820;44.838;37.674;2024-01-06T04:06:46;5.01;83.48
78992;DHT22;72820;44.838;37.674;2024-01-06T04:07:47;5.03;84.05
78992;DHT22;72820;44.838;37.674;2024-01-06T04:08:49;5.07;84.41
78992;DHT22;72820;44.838;37.674;2024-01-06T04:09:51;5.03;83.94
78992;DHT22;72820;44.838;37.674;2024-01-06T04:10:53;5.03;83.50
78992;DHT22;72820;44.838;37.674;2024-01-06T04:11:55;5.03;83.42
78992;DHT22;72820;44.838;37.674;2024-01-06T04:12:56;5.06;83.82
78992;DHT22;72820;44.838;37.674;2024-01-06T04:13:58;5.07;83.93
78992;DHT22;72820;44.838;37.674;2024-01-06T04:14:59;5.06;83.74
78992;DHT22;72820;44.838;37.674;2024-01-06T04:16:01;5.06;83.69
78992;DHT22;72820;44.838;37.674;2024-01-06T04:17:03;5.04;83.74
78992;DHT22;72820;44.838;37.674;2024-01-06T04:18:05;5.01;83.59
78992;DHT22;72820;44.838;37.674;2024-01-06T04:19:07;4.97;83.43
78992;DHT22;72820;44.838;37.674;2024-01-06T04:20:10;4.94;83.62
78992;DHT22;72820;44.838;37.674;2024-01-06T04:21:13;4.96;84.04
78992;DHT22;72820;44.838;37.674;2024-01-06T04:22:15;5.00;84.28
78992;DHT22;72820;44.838;37.674;2024-01-06T04:23:16;5.01;84.41
78992;DHT22;72820;44.838;37.674;2024-01-06T04:24:18;5.06;84.71
78992;DHT22;72820;44.838;37.674;2024-01-06T04:25:19;5.10;84.81
78992;DHT22;72820;44.838;37.674;2024-01-06T04:26:22;5.09;83.78
78992;DHT22;72820;44.838;37.674;2024-01-06T04:27:23;5.01;83.57
78992;DHT22;72820;44.838;37.674;2024-01-06T04:28:25;5.01;83.44
78992;DHT22;72820;44.838;37.674;2024-01-06T04:29:27;5.04;82.67
78992;DHT22;72820;44.838;37.674;2024-01-06T04:30:28;5.00;83.14
78992;DHT22;72820;44.838;37.674;2024-01-06T04:31:30;5.00;82.59
78992;DHT22;72820;44.838;37.674;2024-01-06T04:32:32;4.94;82.55
78992;DHT22;72820;44.838;37.674;2024-01-06T04:33:34;4.89;82.69
78992;DHT22;72820;44.838;37.674;2024-01-06T04:34:37;4.85;83.00
78992;DHT22;72820;44.838;37.674;2024-01-06T04:35:39;4.86;83.46
78992;DHT22;72820;44.838;37.674;2024-01-06T04:36:41;4.83;83.47
78992;DHT22;72820;44.838;37.674;2024-01-06T04:37:42;4.83;83.51
78992;DHT22;72820;44.838;37.674;2024-01-06T04:38:44;4.82;83.77
78992;DHT22;72820;44.838;37.674;2024-01-06T04:39:46;4.80;83.92
78992;DHT22;72820;44.838;37.674;2024-01-06T04:40:47;4.83;84.02
78992;DHT22;72820;44.838;37.674;2024-01-06T04:41:49;4.86;83.91
78992;DHT22;72820;44.838;37.674;2024-01-06T04:42:51;4.86;83.82
78992;DHT22;72820;44.838;37.674;2024-01-06T04:43:53;4.85;83.54
78992;DHT22;72820;44.838;37.674;2024-01-06T04:44:54;4.80;83.00
78992;DHT22;72820;44.838;37.674;2024-01-06T04:45:56;4.71;82.51
78992;DHT22;72820;44.838;37.674;2024-01-06T04:46:59;4.65;82.64
78992;DHT22;72820;44.838;37.674;2024-01-06T04:48:00;4.49;81.78
78992;DHT22;72820;44.838;37.674;2024-01-06T04:49:02;4.38;82.51
78992;DHT22;72820;44.838;37.674;2024-01-06T04:50:04;4.36;82.94
78992;DHT22;72820;44.838;37.674;2024-01-06T04:51:06;4.36;83.40
78992;DHT22;72820;44.838;37.674;2024-01-06T04:52:11;4.38;83.34
78992;DHT22;72820;44.838;37.674;2024-01-06T04:53:13;4.37;83.44
78992;DHT22;72820;44.838;37.674;2024-01-06T04:54:14;4.34;83.62
78992;DHT22;72820;44.838;37.674;2024-01-06T04:55:16;4.33;83.60
78992;DHT22;72820;44.838;37.674;2024-01-06T04:56:18;4.33;83.81
78992;DHT22;72820;44.838;37.674;2024-01-06T04:57:20;4.36;84.51
78992;DHT22;72820;44.838;37.674;2024-01-06T04:58:22;4.38;83.77
78992;DHT22;72820;44.838;37.674;2024-01-06T04:59:23;4.34;83.36
78992;DHT22;72820;44.838;37.674;2024-01-06T05:00:25;4.31;83.25
78992;DHT22;72820;44.838;37.674;2024-01-06T05:01:29;4.30;83.35
78992;DHT22;72820;44.838;37.674;2024-01-06T05:02:30;4.30;83.15
78992;DHT22;72820;44.838;37.674;2024-01-06T05:03:32;4.23;82.91
78992;DHT22;72820;44.838;37.674;2024-01-06T05:04:34;4.17;82.80
78992;DHT22;72820;44.838;37.674;2024-01-06T05:05:36;4.13;83.09
78992;DHT22;72820;44.838;37.674;2024-01-06T05:06:37;4.10;83.31
78992;DHT22;72820;44.838;37.674;2024-01-06T05:07:39;4.09;83.61
78992;DHT22;72820;44.838;37.674;2024-01-06T05:08:41;4.09;83.21
78992;DHT22;72820;44.838;37.674;2024-01-06T05:09:46;4.09;83.30
78992;DHT22;72820;44.838;37.674;2024-01-06T05:10:51;4.10;82.78
78992;DHT22;72820;44.838;37.674;2024-01-06T05:11:53;4.04;82.69
78992;DHT22;72820;44.838;37.674;2024-01-06T05:12:55;4.03;82.81
78992;DHT22;72820;44.838;37.674;2024-01-06T05:13:56;3.99;83.02
78992;DHT22;72820;44.838;37.674;2024-01-06T05:14:58;4.02;83.22
78992;DHT22;72820;44.838;37.674;2024-01-06T05:16:00;3.99;83.49
78992;DHT22;72820;44.838;37.674;2024-01-06T05:17:02;4.03;83.65
78992;DHT22;72820;44.838;37.674;2024-01-06T05:18:04;4.06;83.79
78992;DHT22;72820;44.838;37.674;2024-01-06T05:19:05;4.04;83.76
78992;DHT22;72820;44.838;37.674;2024-01-06T05:20:07;4.03;83.85
78992;DHT22;72820;44.838;37.674;2024-01-06T05:21:09;4.07;84.02
78992;DHT22;72820;44.838;37.674;2024-01-06T05:22:11;4.10;84.01
78992;DHT22;72820;44.838;37.674;2024-01-06T05:23:13;4.13;83.73
78992;DHT22;72820;44.838;37.674;2024-01-06T05:24:15;4.09;83.13
78992;DHT22;72820;44.838;37.674;2024-01-06T05:25:17;4.11;83.40
78992;DHT22;72820;44.838;37.674;2024-01-06T05:26:19;4.09;82.97
78992;DHT22;72820;44.838;37.674;2024-01-06T05:27:21;4.06;82.77
78992;DHT22;72820;44.838;37.674;2024-01-06T05:28:23;4.02;82.92
78992;DHT22;72820;44.838;37.674;2024-01-06T05:29:24;4.02;82.83
78992;DHT22;72820;44.838;37.674;2024-01-06T05:30:27;3.96;82.48
78992;DHT22;72820;44.838;37.674;2024-01-06T05:31:29;3.87;82.71
78992;DHT22;72820;44.838;37.674;2024-01-06T05:32:30;3.90;82.99
78992;DHT22;72820;44.838;37.674;2024-01-06T05:33:31;3.90;83.34
78992;DHT22;72820;44.838;37.674;2024-01-06T05:34:33;3.93;83.59
78992;DHT22;72820;44.838;37.674;2024-01-06T05:35:34;3.99;83.82
78992;DHT22;72820;44.838;37.674;2024-01-06T05:36:36;3.99;83.72
78992;DHT22;72820;44.838;37.674;2024-01-06T05:37:37;3.99;83.62
78992;DHT22;72820;44.838;37.674;2024-01-06T05:38:39;3.94;83.08
78992;DHT22;72820;44.838;37.674;2024-01-06T05:39:40;3.92;83.19
78992;DHT22;72820;44.838;37.674;2024-01-06T05:40:42;3.92;83.52
78992;DHT22;72820;44.838;37.674;2024-01-06T05:41:44;3.92;83.52
78992;DHT22;72820;44.838;37.674;2024-01-06T05:42:45;3.89;83.74
78992;DHT22;72820;44.838;37.674;2024-01-06T05:43:46;3.93;84.07
78992;DHT22;72820;44.838;37.674;2024-01-06T05:44:48;3.96;84.12
78992;DHT22;72820;44.838;37.674;2024-01-06T05:45:49;3.99;83.97
78992;DHT22;72820;44.838;37.674;2024-01-06T05:46:51;4.00;83.87
78992;DHT22;72820;44.838;37.674;2024-01-06T05:47:53;4.03;83.80
78992;DHT22;72820;44.838;37.674;2024-01-06T05:48:55;4.00;83.71
78992;DHT22;72820;44.838;37.674;2024-01-06T05:49:57;4.06;83.63
78992;DHT22;72820;44.838;37.674;2024-01-06T05:50:58;4.06;83.10
78992;DHT22;72820;44.838;37.674;2024-01-06T05:52:00;4.06;82.69
78992;DHT22;72820;44.838;37.674;2024-01-06T05:53:01;4.06;82.59
78992;DHT22;72820;44.838;37.674;2024-01-06T05:54:03;4.06;82.21
78992;DHT22;72820;44.838;37.674;2024-01-06T05:55:05;4.03;82.26
78992;DHT22;72820;44.838;37.674;2024-01-06T05:56:06;4.03;82.34
78992;DHT22;72820;44.838;37.674;2024-01-06T05:57:08;4.03;82.22
78992;DHT22;72820;44.838;37.674;2024-01-06T05:58:10;4.03;82.58
78992;DHT22;72820;44.838;37.674;2024-01-06T05:59:11;4.06;83.07
78992;DHT22;72820;44.838;37.674;2024-01-06T06:00:13;4.07;83.21
78992;DHT22;72820;44.838;37.674;2024-01-06T06:01:14;4.10;83.33
78992;DHT22;72820;44.838;37.674;2024-01-06T06:02:16;4.13;83.48
78992;DHT22;72820;44.838;37.674;2024-01-06T06:03:18;4.14;83.59
78992;DHT22;72820;44.838;37.674;2024-01-06T06:04:20;4.10;83.39
78992;DHT22;72820;44.838;37.674;2024-01-06T06:05:21;4.13;83.56
78992;DHT22;72820;44.838;37.674;2024-01-06T06:06:23;4.16;83.59
78992;DHT22;72820;44.838;37.674;2024-01-06T06:07:24;4.18;83.59
78992;DHT22;72820;44.838;37.674;2024-01-06T06:08:26;4.21;83.49
78992;DHT22;72820;44.838;37.674;2024-01-06T06:09:28;4.24;83.55
78992;DHT22;72820;44.838;37.674;2024-01-06T06:10:29;4.29;83.37
78992;DHT22;72820;44.838;37.674;2024-01-06T06:11:41;4.33;83.27
78992;DHT22;72820;44.838;37.674;2024-01-06T06:12:44;4.34;83.23
78992;DHT22;72820;44.838;37.674;2024-01-06T06:13:46;4.38;83.10
78992;DHT22;72820;44.838;37.674;2024-01-06T06:14:47;4.40;83.13
78992;DHT22;72820;44.838;37.674;2024-01-06T06:15:49;4.44;83.17
78992;DHT22;72820;44.838;37.674;2024-01-06T06:16:50;4.42;83.08
78992;DHT22;72820;44.838;37.674;2024-01-06T06:17:51;4.44;83.36
78992;DHT22;72820;44.838;37.674;2024-01-06T06:18:53;4.48;83.63
78992;DHT22;72820;44.838;37.674;2024-01-06T06:19:55;4.48;83.75
78992;DHT22;72820;44.838;37.674;2024-01-06T06:20:58;4.57;83.90
78992;DHT22;72820;44.838;37.674;2024-01-06T06:21:59;4.59;83.97
78992;DHT22;72820;44.838;37.674;2024-01-06T06:23:01;4.62;83.97
78992;DHT22;72820;44.838;37.674;2024-01-06T06:24:03;4.65;84.07
78992;DHT22;72820;44.838;37.674;2024-01-06T06:25:07;4.66;84.19
78992;DHT22;72820;44.838;37.674;2024-01-06T06:26:09;4.69;84.28
78992;DHT22;72820;44.838;37.674;2024-01-06T06:27:10;4.72;84.39
78992;DHT22;72820;44.838;37.674;2024-01-06T06:28:12;4.76;84.42
78992;DHT22;72820;44.838;37.674;2024-01-06T06:29:14;4.77;84.31
78992;DHT22;72820;44.838;37.674;2024-01-06T06:30:16;4.80;84.42